sensor_id;sensor_type;location;lat;lon;timestamp;temperature;humidity
46231;DHT22;31949;51.404;-0.038;2023-09-12T00:02:16;20.00;99.90
46231;DHT22;31949;51.404;-0.038;2023-09-12T00:04:43;19.90;99.90
46231;DHT22;31949;51.404;-0.038;2023-09-12T00:07:10;19.90;99.90
46231;DHT22;31949;51.404;-0.038;2023-09-12T00:09:38;19.90;99.90
46231;DHT22;31949;51.404;-0.038;2023-09-12T00:12:05;19.90;99.90
46231;DHT22;31949;51.404;-0.038;2023-09-12T00:14:33;19.80;99.90
46231;DHT22;31949;51.404;-0.038;2023-09-12T00:17:00;19.80;99.90
46231;DHT22;31949;51.404;-0.038;2023-09-12T00:19:27;19.80;99.90
46231;DHT22;31949;51.404;-0.038;2023-09-12T00:21:54;19.70;99.90
46231;DHT22;31949;51.404;-0.038;2023-09-12T00:24:22;19.80;99.90
46231;DHT22;31949;51.404;-0.038;2023-09-12T00:26:49;19.70;99.90
46231;DHT22;31949;51.404;-0.038;2023-09-12T00:29:17;19.70;99.90
46231;DHT22;31949;51.404;-0.038;2023-09-12T00:31:45;19.70;99.90
46231;DHT22;31949;51.404;-0.038;2023-09-12T00:34:16;19.60;99.90
46231;DHT22;31949;51.404;-0.038;2023-09-12T00:36:44;19.60;99.90
46231;DHT22;31949;51.404;-0.038;2023-09-12T00:39:11;19.60;99.90
46231;DHT22;31949;51.404;-0.038;2023-09-12T00:41:38;19.60;99.90
46231;DHT22;31949;51.404;-0.038;2023-09-12T00:44:06;19.60;99.90
46231;DHT22;31949;51.404;-0.038;2023-09-12T00:46:34;19.60;99.90
46231;DHT22;31949;51.404;-0.038;2023-09-12T00:49:02;19.60;99.90
46231;DHT22;31949;51.404;-0.038;2023-09-12T00:51:32;19.60;99.90
46231;DHT22;31949;51.404;-0.038;2023-09-12T00:54:00;19.60;99.90
46231;DHT22;31949;51.404;-0.038;2023-09-12T00:56:28;19.60;99.90
46231;DHT22;31949;51.404;-0.038;2023-09-12T00:58:56;19.60;99.90
46231;DHT22;31949;51.404;-0.038;2023-09-12T01:01:24;19.60;99.90
46231;DHT22;31949;51.404;-0.038;2023-09-12T01:03:51;19.60;99.90
46231;DHT22;31949;51.404;-0.038;2023-09-12T01:06:22;19.60;99.90
46231;DHT22;31949;51.404;-0.038;2023-09-12T01:08:50;19.60;99.90
46231;DHT22;31949;51.404;-0.038;2023-09-12T01:11:18;19.60;99.90
46231;DHT22;31949;51.404;-0.038;2023-09-12T01:13:45;19.60;99.90
46231;DHT22;31949;51.404;-0.038;2023-09-12T01:16:13;19.60;99.90
46231;DHT22;31949;51.404;-0.038;2023-09-12T01:18:40;19.60;99.90
46231;DHT22;31949;51.404;-0.038;2023-09-12T01:29:31;19.60;99.90
46231;DHT22;31949;51.404;-0.038;2023-09-12T01:31:59;19.60;99.90
46231;DHT22;31949;51.404;-0.038;2023-09-12T01:34:27;19.60;99.90
46231;DHT22;31949;51.404;-0.038;2023-09-12T07:52:04;19.80;99.90
46231;DHT22;31949;51.404;-0.038;2023-09-12T07:55:08;19.90;99.90
46231;DHT22;31949;51.404;-0.038;2023-09-12T08:07:13;20.10;99.90
46231;DHT22;31949;51.404;-0.038;2023-09-12T08:09:55;20.10;99.90
46231;DHT22;31949;51.404;-0.038;2023-09-12T08:12:24;20.10;99.90
46231;DHT22;31949;51.404;-0.038;2023-09-12T08:14:53;20.10;99.90
46231;DHT22;31949;51.404;-0.038;2023-09-12T08:17:22;20.10;99.90
46231;DHT22;31949;51.404;-0.038;2023-09-12T08:19:50;20.00;99.90
46231;DHT22;31949;51.404;-0.038;2023-09-12T08:22:17;20.00;99.90
46231;DHT22;31949;51.404;-0.038;2023-09-12T08:24:45;20.10;99.90
46231;DHT22;31949;51.404;-0.038;2023-09-12T08:27:13;20.20;99.90
46231;DHT22;31949;51.404;-0.038;2023-09-12T08:29:40;20.20;99.90
46231;DHT22;31949;51.404;-0.038;2023-09-12T08:32:10;20.20;99.90
46231;DHT22;31949;51.404;-0.038;2023-09-12T08:34:38;20.20;99.90
46231;DHT22;31949;51.404;-0.038;2023-09-12T08:37:05;20.20;99.90
46231;DHT22;31949;51.404;-0.038;2023-09-12T08:39:45;20.30;99.90
46231;DHT22;31949;51.404;-0.038;2023-09-12T08:42:14;20.40;99.90
46231;DHT22;31949;51.404;-0.038;2023-09-12T08:44:43;20.40;99.90
46231;DHT22;31949;51.404;-0.038;2023-09-12T08:47:11;20.40;99.90
46231;DHT22;31949;51.404;-0.038;2023-09-12T08:49:38;20.40;99.90
46231;DHT22;31949;51.404;-0.038;2023-09-12T08:52:06;20.40;99.90
46231;DHT22;31949;51.404;-0.038;2023-09-12T08:54:33;20.40;99.90
46231;DHT22;31949;51.404;-0.038;2023-09-12T08:57:02;20.40;99.90
46231;DHT22;31949;51.404;-0.038;2023-09-12T08:59:34;20.50;99.90
46231;DHT22;31949;51.404;-0.038;2023-09-12T09:02:03;20.50;99.90
46231;DHT22;31949;51.404;-0.038;2023-09-12T09:04:34;20.50;99.90
46231;DHT22;31949;51.404;-0.038;2023-09-12T09:07:03;20.50;99.90
46231;DHT22;31949;51.404;-0.038;2023-09-12T09:09:31;20.50;99.90
46231;DHT22;31949;51.404;-0.038;2023-09-12T09:11:59;20.60;99.90
46231;DHT22;31949;51.404;-0.038;2023-09-12T09:14:26;20.70;99.90
46231;DHT22;31949;51.404;-0.038;2023-09-12T09:16:54;20.80;99.90
46231;DHT22;31949;51.404;-0.038;2023-09-12T09:19:21;20.90;99.90
46231;DHT22;31949;51.404;-0.038;2023-09-12T09:21:49;20.90;99.90
46231;DHT22;31949;51.404;-0.038;2023-09-12T09:24:17;20.90;99.90
46231;DHT22;31949;51.404;-0.038;2023-09-12T09:26:46;21.00;99.90
46231;DHT22;31949;51.404;-0.038;2023-09-12T09:29:16;21.20;99.90
46231;DHT22;31949;51.404;-0.038;2023-09-12T09:31:45;21.20;99.90
46231;DHT22;31949;51.404;-0.038;2023-09-12T09:34:13;21.30;99.90
46231;DHT22;31949;51.404;-0.038;2023-09-12T09:36:54;21.40;99.90
46231;DHT22;31949;51.404;-0.038;2023-09-12T09:39:24;21.40;99.90
46231;DHT22;31949;51.404;-0.038;2023-09-12T09:41:53;21.50;99.90
46231;DHT22;31949;51.404;-0.038;2023-09-12T09:44:25;21.60;99.90
46231;DHT22;31949;51.404;-0.038;2023-09-12T09:47:03;21.70;99.90
46231;DHT22;31949;51.404;-0.038;2023-09-12T09:49:33;21.60;99.90
46231;DHT22;31949;51.404;-0.038;2023-09-12T09:52:04;21.80;99.90
46231;DHT22;31949;51.404;-0.038;2023-09-12T09:54:32;22.00;99.90
46231;DHT22;31949;51.404;-0.038;2023-09-12T09:56:59;22.10;99.90
46231;DHT22;31949;51.404;-0.038;2023-09-12T09:59:27;22.20;99.90
46231;DHT22;31949;51.404;-0.038;2023-09-12T10:01:59;22.20;99.90
46231;DHT22;31949;51.404;-0.038;2023-09-12T10:04:28;22.40;99.90
46231;DHT22;31949;51.404;-0.038;2023-09-12T10:06:57;22.70;99.90
46231;DHT22;31949;51.404;-0.038;2023-09-12T10:09:26;22.80;99.90
46231;DHT22;31949;51.404;-0.038;2023-09-12T10:11:55;23.00;99.90
46231;DHT22;31949;51.404;-0.038;2023-09-12T10:14:24;23.00;99.90
46231;DHT22;31949;51.404;-0.038;2023-09-12T10:17:00;23.00;99.90
46231;DHT22;31949;51.404;-0.038;2023-09-12T10:19:38;22.90;99.90
46231;DHT22;31949;51.404;-0.038;2023-09-12T10:22:18;22.90;99.90
46231;DHT22;31949;51.404;-0.038;2023-09-12T10:24:49;22.90;99.90
46231;DHT22;31949;51.404;-0.038;2023-09-12T10:27:18;22.90;99.90
46231;DHT22;31949;51.404;-0.038;2023-09-12T10:29:46;22.90;99.90
46231;DHT22;31949;51.404;-0.038;2023-09-12T10:32:17;23.00;99.90
46231;DHT22;31949;51.404;-0.038;2023-09-12T10:34:46;23.10;99.90
46231;DHT22;31949;51.404;-0.038;2023-09-12T10:37:16;23.10;99.90
46231;DHT22;31949;51.404;-0.038;2023-09-12T10:39:44;23.20;99.90
46231;DHT22;31949;51.404;-0.038;2023-09-12T10:42:12;23.20;99.90
46231;DHT22;31949;51.404;-0.038;2023-09-12T10:44:40;23.00;99.90
46231;DHT22;31949;51.404;-0.038;2023-09-12T10:47:07;23.20;99.90
46231;DHT22;31949;51.404;-0.038;2023-09-12T10:49:37;23.30;99.90
46231;DHT22;31949;51.404;-0.038;2023-09-12T10:52:04;23.30;99.90
46231;DHT22;31949;51.404;-0.038;2023-09-12T10:54:39;23.40;99.90
46231;DHT22;31949;51.404;-0.038;2023-09-12T10:57:09;23.50;99.90
46231;DHT22;31949;51.404;-0.038;2023-09-12T11:02:31;23.50;99.90
46231;DHT22;31949;51.404;-0.038;2023-09-12T11:04:59;23.50;99.90
46231;DHT22;31949;51.404;-0.038;2023-09-12T11:07:44;23.50;99.90
46231;DHT22;31949;51.404;-0.038;2023-09-12T11:12:43;23.60;99.90
46231;DHT22;31949;51.404;-0.038;2023-09-12T11:15:11;23.80;99.90
46231;DHT22;31949;51.404;-0.038;2023-09-12T11:17:39;23.80;99.90
46231;DHT22;31949;51.404;-0.038;2023-09-12T11:20:08;23.80;99.90
46231;DHT22;31949;51.404;-0.038;2023-09-12T11:22:39;23.80;99.90
46231;DHT22;31949;51.404;-0.038;2023-09-12T11:25:17;23.90;99.90
46231;DHT22;31949;51.404;-0.038;2023-09-12T11:30:23;23.90;99.90
46231;DHT22;31949;51.404;-0.038;2023-09-12T11:32:53;23.90;99.90
46231;DHT22;31949;51.404;-0.038;2023-09-12T11:35:26;23.80;99.90
46231;DHT22;31949;51.404;-0.038;2023-09-12T11:37:54;24.00;99.90
46231;DHT22;31949;51.404;-0.038;2023-09-12T11:40:24;24.10;99.90
46231;DHT22;31949;51.404;-0.038;2023-09-12T11:42:52;24.20;99.90
46231;DHT22;31949;51.404;-0.038;2023-09-12T11:45:20;24.20;99.90
46231;DHT22;31949;51.404;-0.038;2023-09-12T11:47:48;24.10;99.90
46231;DHT22;31949;51.404;-0.038;2023-09-12T11:53:06;24.10;99.90
46231;DHT22;31949;51.404;-0.038;2023-09-12T11:58:05;24.10;99.90
46231;DHT22;31949;51.404;-0.038;2023-09-12T12:00:33;24.10;99.90
46231;DHT22;31949;51.404;-0.038;2023-09-12T12:03:00;24.10;99.90
46231;DHT22;31949;51.404;-0.038;2023-09-12T12:05:28;24.10;99.90
46231;DHT22;31949;51.404;-0.038;2023-09-12T12:07:56;24.10;99.90
46231;DHT22;31949;51.404;-0.038;2023-09-12T12:10:43;24.20;99.90
46231;DHT22;31949;51.404;-0.038;2023-09-12T12:13:21;24.10;99.90
46231;DHT22;31949;51.404;-0.038;2023-09-12T12:15:48;24.10;99.90
46231;DHT22;31949;51.404;-0.038;2023-09-12T12:18:16;24.10;99.90
46231;DHT22;31949;51.404;-0.038;2023-09-12T12:20:43;24.10;99.90
46231;DHT22;31949;51.404;-0.038;2023-09-12T12:23:12;24.00;99.90
46231;DHT22;31949;51.404;-0.038;2023-09-12T12:25:39;24.00;99.90
46231;DHT22;31949;51.404;-0.038;2023-09-12T12:28:07;24.10;99.90
46231;DHT22;31949;51.404;-0.038;2023-09-12T12:30:35;24.20;99.90
46231;DHT22;31949;51.404;-0.038;2023-09-12T12:33:10;24.10;99.90
46231;DHT22;31949;51.404;-0.038;2023-09-12T12:38:37;23.90;99.90
46231;DHT22;31949;51.404;-0.038;2023-09-12T12:41:15;23.90;99.90
46231;DHT22;31949;51.404;-0.038;2023-09-12T12:43:43;23.80;99.90
46231;DHT22;31949;51.404;-0.038;2023-09-12T12:46:11;23.90;99.90
46231;DHT22;31949;51.404;-0.038;2023-09-12T12:48:43;23.90;99.90
46231;DHT22;31949;51.404;-0.038;2023-09-12T12:51:18;23.90;99.90
46231;DHT22;31949;51.404;-0.038;2023-09-12T12:53:48;23.90;99.90
46231;DHT22;31949;51.404;-0.038;2023-09-12T12:56:28;24.00;99.90
46231;DHT22;31949;51.404;-0.038;2023-09-12T12:59:00;23.90;99.90
46231;DHT22;31949;51.404;-0.038;2023-09-12T13:01:30;23.90;99.90
46231;DHT22;31949;51.404;-0.038;2023-09-12T13:03:58;23.90;99.90
46231;DHT22;31949;51.404;-0.038;2023-09-12T13:06:26;23.70;99.90
46231;DHT22;31949;51.404;-0.038;2023-09-12T13:08:55;23.70;99.90
46231;DHT22;31949;51.404;-0.038;2023-09-12T13:11:24;23.60;99.90
46231;DHT22;31949;51.404;-0.038;2023-09-12T13:13:52;23.60;99.90
46231;DHT22;31949;51.404;-0.038;2023-09-12T13:16:19;23.70;99.90
46231;DHT22;31949;51.404;-0.038;2023-09-12T13:18:47;23.80;99.90
46231;DHT22;31949;51.404;-0.038;2023-09-12T13:21:14;23.70;99.90
46231;DHT22;31949;51.404;-0.038;2023-09-12T13:23:41;23.60;99.90
46231;DHT22;31949;51.404;-0.038;2023-09-12T13:26:09;23.70;99.90
46231;DHT22;31949;51.404;-0.038;2023-09-12T13:28:37;23.70;99.90
46231;DHT22;31949;51.404;-0.038;2023-09-12T13:31:04;23.70;99.90
46231;DHT22;31949;51.404;-0.038;2023-09-12T13:33:31;23.70;99.90
46231;DHT22;31949;51.404;-0.038;2023-09-12T13:35:59;23.60;99.90
46231;DHT22;31949;51.404;-0.038;2023-09-12T13:38:26;23.80;99.90
46231;DHT22;31949;51.404;-0.038;2023-09-12T13:40:53;23.70;99.90
46231;DHT22;31949;51.404;-0.038;2023-09-12T13:43:20;23.70;99.90
46231;DHT22;31949;51.404;-0.038;2023-09-12T13:45:49;23.60;99.90
46231;DHT22;31949;51.404;-0.038;2023-09-12T13:48:17;23.50;99.90
46231;DHT22;31949;51.404;-0.038;2023-09-12T13:50:45;23.50;99.90
46231;DHT22;31949;51.404;-0.038;2023-09-12T13:53:13;23.50;99.90
46231;DHT22;31949;51.404;-0.038;2023-09-12T13:55:41;23.60;99.90
46231;DHT22;31949;51.404;-0.038;2023-09-12T13:58:28;23.60;99.90
46231;DHT22;31949;51.404;-0.038;2023-09-12T14:01:09;23.70;99.90
46231;DHT22;31949;51.404;-0.038;2023-09-12T14:03:39;23.70;99.90
46231;DHT22;31949;51.404;-0.038;2023-09-12T14:06:06;23.60;99.90
46231;DHT22;31949;51.404;-0.038;2023-09-12T14:08:34;23.40;99.90
46231;DHT22;31949;51.404;-0.038;2023-09-12T14:11:03;23.50;99.90
46231;DHT22;31949;51.404;-0.038;2023-09-12T14:13:31;23.50;99.90
46231;DHT22;31949;51.404;-0.038;2023-09-12T14:16:00;23.40;99.90
46231;DHT22;31949;51.404;-0.038;2023-09-12T14:18:28;23.30;99.90
46231;DHT22;31949;51.404;-0.038;2023-09-12T14:20:57;23.40;99.90
46231;DHT22;31949;51.404;-0.038;2023-09-12T14:23:25;23.40;99.90
46231;DHT22;31949;51.404;-0.038;2023-09-12T14:25:52;23.40;99.90
46231;DHT22;31949;51.404;-0.038;2023-09-12T14:28:20;23.40;99.90
46231;DHT22;31949;51.404;-0.038;2023-09-12T14:30:48;23.50;99.90
46231;DHT22;31949;51.404;-0.038;2023-09-12T14:33:16;23.60;99.90
46231;DHT22;31949;51.404;-0.038;2023-09-12T14:35:46;23.60;99.90
46231;DHT22;31949;51.404;-0.038;2023-09-12T14:38:14;23.60;99.90
46231;DHT22;31949;51.404;-0.038;2023-09-12T14:40:41;23.60;99.90
46231;DHT22;31949;51.404;-0.038;2023-09-12T14:43:12;23.60;99.90
46231;DHT22;31949;51.404;-0.038;2023-09-12T14:45:39;23.60;99.90
46231;DHT22;31949;51.404;-0.038;2023-09-12T14:48:07;23.60;99.90
46231;DHT22;31949;51.404;-0.038;2023-09-12T14:50:34;23.70;99.90
46231;DHT22;31949;51.404;-0.038;2023-09-12T14:53:12;23.70;99.90
46231;DHT22;31949;51.404;-0.038;2023-09-12T14:55:39;23.60;99.90
46231;DHT22;31949;51.404;-0.038;2023-09-12T14:58:07;23.50;99.90
46231;DHT22;31949;51.404;-0.038;2023-09-12T15:00:34;23.50;99.90
46231;DHT22;31949;51.404;-0.038;2023-09-12T15:03:04;23.40;99.90
46231;DHT22;31949;51.404;-0.038;2023-09-12T15:05:32;23.50;99.90
46231;DHT22;31949;51.404;-0.038;2023-09-12T15:07:59;23.50;99.90
46231;DHT22;31949;51.404;-0.038;2023-09-12T15:10:26;23.40;99.90
46231;DHT22;31949;51.404;-0.038;2023-09-12T15:12:54;23.40;99.90
46231;DHT22;31949;51.404;-0.038;2023-09-12T15:15:21;23.40;99.90
46231;DHT22;31949;51.404;-0.038;2023-09-12T15:17:48;23.20;99.90
46231;DHT22;31949;51.404;-0.038;2023-09-12T15:20:16;23.20;99.90
46231;DHT22;31949;51.404;-0.038;2023-09-12T15:22:43;23.20;99.90
46231;DHT22;31949;51.404;-0.038;2023-09-12T15:25:11;23.20;99.90
46231;DHT22;31949;51.404;-0.038;2023-09-12T15:27:38;23.00;99.90
46231;DHT22;31949;51.404;-0.038;2023-09-12T15:30:06;22.90;99.90
46231;DHT22;31949;51.404;-0.038;2023-09-12T15:32:33;23.00;99.90
46231;DHT22;31949;51.404;-0.038;2023-09-12T15:35:01;22.90;99.90
46231;DHT22;31949;51.404;-0.038;2023-09-12T15:37:30;22.90;99.90
46231;DHT22;31949;51.404;-0.038;2023-09-12T15:39:57;22.90;99.90
46231;DHT22;31949;51.404;-0.038;2023-09-12T15:42:25;22.90;99.90
46231;DHT22;31949;51.404;-0.038;2023-09-12T15:45:04;23.00;99.90
46231;DHT22;31949;51.404;-0.038;2023-09-12T15:47:32;22.90;99.90
46231;DHT22;31949;51.404;-0.038;2023-09-12T15:50:00;23.00;99.90
46231;DHT22;31949;51.404;-0.038;2023-09-12T15:52:27;23.10;99.90
46231;DHT22;31949;51.404;-0.038;2023-09-12T15:54:54;23.10;99.90
46231;DHT22;31949;51.404;-0.038;2023-09-12T15:57:22;23.10;99.90
46231;DHT22;31949;51.404;-0.038;2023-09-12T15:59:49;23.00;99.90
46231;DHT22;31949;51.404;-0.038;2023-09-12T16:02:16;23.00;99.90
46231;DHT22;31949;51.404;-0.038;2023-09-12T16:04:44;22.90;99.90
46231;DHT22;31949;51.404;-0.038;2023-09-12T16:07:11;22.90;99.90
46231;DHT22;31949;51.404;-0.038;2023-09-12T16:09:39;22.80;99.90
46231;DHT22;31949;51.404;-0.038;2023-09-12T16:12:06;22.80;99.90
46231;DHT22;31949;51.404;-0.038;2023-09-12T16:14:33;22.70;99.90
46231;DHT22;31949;51.404;-0.038;2023-09-12T16:17:01;22.70;99.90
46231;DHT22;31949;51.404;-0.038;2023-09-12T16:19:29;22.70;99.90
46231;DHT22;31949;51.404;-0.038;2023-09-12T16:21:56;22.70;99.90
46231;DHT22;31949;51.404;-0.038;2023-09-12T16:24:24;22.60;99.90
46231;DHT22;31949;51.404;-0.038;2023-09-12T16:26:51;22.60;99.90
46231;DHT22;31949;51.404;-0.038;2023-09-12T16:29:19;22.50;99.90
46231;DHT22;31949;51.404;-0.038;2023-09-12T16:31:47;22.50;99.90
46231;DHT22;31949;51.404;-0.038;2023-09-12T16:34:14;22.50;99.90
46231;DHT22;31949;51.404;-0.038;2023-09-12T16:36:42;22.40;99.90
46231;DHT22;31949;51.404;-0.038;2023-09-12T16:39:09;22.40;99.90
46231;DHT22;31949;51.404;-0.038;2023-09-12T16:41:37;22.40;99.90
46231;DHT22;31949;51.404;-0.038;2023-09-12T16:44:04;22.20;99.90
46231;DHT22;31949;51.404;-0.038;2023-09-12T16:46:31;22.10;99.90
46231;DHT22;31949;51.404;-0.038;2023-09-12T16:48:58;22.00;99.90
46231;DHT22;31949;51.404;-0.038;2023-09-12T16:51:26;22.00;99.90
46231;DHT22;31949;51.404;-0.038;2023-09-12T16:53:53;21.90;99.90
46231;DHT22;31949;51.404;-0.038;2023-09-12T16:56:21;21.80;99.90
46231;DHT22;31949;51.404;-0.038;2023-09-12T16:58:48;21.70;99.90
46231;DHT22;31949;51.404;-0.038;2023-09-12T17:01:15;21.60;99.90
46231;DHT22;31949;51.404;-0.038;2023-09-12T17:03:44;21.50;99.90
46231;DHT22;31949;51.404;-0.038;2023-09-12T17:06:13;21.30;99.90
46231;DHT22;31949;51.404;-0.038;2023-09-12T17:08:40;21.20;99.90
46231;DHT22;31949;51.404;-0.038;2023-09-12T17:11:07;21.10;99.90
46231;DHT22;31949;51.404;-0.038;2023-09-12T17:13:35;21.10;99.90
46231;DHT22;31949;51.404;-0.038;2023-09-12T17:16:02;21.10;99.90
46231;DHT22;31949;51.404;-0.038;2023-09-12T17:18:29;21.00;99.90
46231;DHT22;31949;51.404;-0.038;2023-09-12T17:21:00;21.00;99.90
46231;DHT22;31949;51.404;-0.038;2023-09-12T17:23:30;21.00;99.90
46231;DHT22;31949;51.404;-0.038;2023-09-12T17:25:57;21.10;99.90
46231;DHT22;31949;51.404;-0.038;2023-09-12T17:28:24;21.00;99.90
46231;DHT22;31949;51.404;-0.038;2023-09-12T17:30:52;21.00;99.90
46231;DHT22;31949;51.404;-0.038;2023-09-12T17:33:19;21.00;99.90
46231;DHT22;31949;51.404;-0.038;2023-09-12T17:35:46;21.00;99.90
46231;DHT22;31949;51.404;-0.038;2023-09-12T17:38:14;21.10;99.90
46231;DHT22;31949;51.404;-0.038;2023-09-12T17:40:41;21.10;99.90
46231;DHT22;31949;51.404;-0.038;2023-09-12T17:43:08;21.10;99.90
46231;DHT22;31949;51.404;-0.038;2023-09-12T17:45:35;21.10;99.90
46231;DHT22;31949;51.404;-0.038;2023-09-12T17:48:03;21.10;99.90
46231;DHT22;31949;51.404;-0.038;2023-09-12T17:50:30;21.10;99.90
46231;DHT22;31949;51.404;-0.038;2023-09-12T17:52:57;21.10;99.90
46231;DHT22;31949;51.404;-0.038;2023-09-12T17:55:25;21.00;99.90
46231;DHT22;31949;51.404;-0.038;2023-09-12T17:57:53;21.10;99.90
46231;DHT22;31949;51.404;-0.038;2023-09-12T18:00:20;20.80;99.90
46231;DHT22;31949;51.404;-0.038;2023-09-12T18:02:54;20.80;99.90
46231;DHT22;31949;51.404;-0.038;2023-09-12T18:05:22;20.70;99.90
46231;DHT22;31949;51.404;-0.038;2023-09-12T18:07:49;20.60;99.90
46231;DHT22;31949;51.404;-0.038;2023-09-12T18:10:16;20.60;99.90
46231;DHT22;31949;51.404;-0.038;2023-09-12T18:12:43;20.50;99.90
46231;DHT22;31949;51.404;-0.038;2023-09-12T18:15:11;20.40;99.90
46231;DHT22;31949;51.404;-0.038;2023-09-12T18:17:40;20.30;99.90
46231;DHT22;31949;51.404;-0.038;2023-09-12T18:20:07;20.30;99.90
46231;DHT22;31949;51.404;-0.038;2023-09-12T18:22:35;20.20;99.90
46231;DHT22;31949;51.404;-0.038;2023-09-12T18:25:02;20.20;99.90
46231;DHT22;31949;51.404;-0.038;2023-09-12T18:27:30;20.20;99.90
46231;DHT22;31949;51.404;-0.038;2023-09-12T18:29:57;20.10;99.90
46231;DHT22;31949;51.404;-0.038;2023-09-12T18:32:24;20.00;99.90
46231;DHT22;31949;51.404;-0.038;2023-09-12T18:34:51;20.00;99.90
46231;DHT22;31949;51.404;-0.038;2023-09-12T18:37:19;19.90;99.90
46231;DHT22;31949;51.404;-0.038;2023-09-12T18:39:46;19.90;99.90
46231;DHT22;31949;51.404;-0.038;2023-09-12T18:42:13;19.90;99.90
46231;DHT22;31949;51.404;-0.038;2023-09-12T18:44:40;19.90;99.90
46231;DHT22;31949;51.404;-0.038;2023-09-12T18:47:07;19.90;99.90
46231;DHT22;31949;51.404;-0.038;2023-09-12T18:49:35;19.90;99.90
46231;DHT22;31949;51.404;-0.038;2023-09-12T18:52:03;19.80;99.90
46231;DHT22;31949;51.404;-0.038;2023-09-12T18:54:30;19.80;99.90
46231;DHT22;31949;51.404;-0.038;2023-09-12T18:56:59;19.90;99.90
46231;DHT22;31949;51.404;-0.038;2023-09-12T18:59:27;19.90;99.90
46231;DHT22;31949;51.404;-0.038;2023-09-12T19:01:54;19.80;99.90
46231;DHT22;31949;51.404;-0.038;2023-09-12T19:04:26;19.80;99.90
46231;DHT22;31949;51.404;-0.038;2023-09-12T19:06:54;19.80;99.90
46231;DHT22;31949;51.404;-0.038;2023-09-12T19:09:22;19.80;99.90
46231;DHT22;31949;51.404;-0.038;2023-09-12T19:11:50;19.70;99.90
46231;DHT22;31949;51.404;-0.038;2023-09-12T19:14:17;19.70;99.90
46231;DHT22;31949;51.404;-0.038;2023-09-12T19:16:45;19.70;99.90
46231;DHT22;31949;51.404;-0.038;2023-09-12T19:19:12;19.70;99.90
46231;DHT22;31949;51.404;-0.038;2023-09-12T19:21:39;19.70;99.90
46231;DHT22;31949;51.404;-0.038;2023-09-12T19:24:07;19.70;99.90
46231;DHT22;31949;51.404;-0.038;2023-09-12T19:26:35;19.70;99.90
46231;DHT22;31949;51.404;-0.038;2023-09-12T19:29:03;19.80;99.90
46231;DHT22;31949;51.404;-0.038;2023-09-12T19:31:31;19.70;99.90
46231;DHT22;31949;51.404;-0.038;2023-09-12T19:33:58;19.70;99.90
46231;DHT22;31949;51.404;-0.038;2023-09-12T19:36:25;19.70;99.90
46231;DHT22;31949;51.404;-0.038;2023-09-12T19:38:53;19.70;99.90
46231;DHT22;31949;51.404;-0.038;2023-09-12T19:41:20;19.70;99.90
46231;DHT22;31949;51.404;-0.038;2023-09-12T19:43:47;19.80;99.90
46231;DHT22;31949;51.404;-0.038;2023-09-12T19:46:14;19.80;99.90
46231;DHT22;31949;51.404;-0.038;2023-09-12T19:48:41;19.80;99.90
46231;DHT22;31949;51.404;-0.038;2023-09-12T19:51:09;19.80;99.90
46231;DHT22;31949;51.404;-0.038;2023-09-12T19:53:36;19.90;99.90
46231;DHT22;31949;51.404;-0.038;2023-09-12T19:56:03;19.80;99.90
46231;DHT22;31949;51.404;-0.038;2023-09-12T19:58:31;19.70;99.90
46231;DHT22;31949;51.404;-0.038;2023-09-12T20:01:00;19.60;99.90
46231;DHT22;31949;51.404;-0.038;2023-09-12T20:03:34;19.50;99.90
46231;DHT22;31949;51.404;-0.038;2023-09-12T20:06:01;19.50;99.90
46231;DHT22;31949;51.404;-0.038;2023-09-12T20:08:29;19.40;99.90
46231;DHT22;31949;51.404;-0.038;2023-09-12T20:10:56;19.30;99.90
46231;DHT22;31949;51.404;-0.038;2023-09-12T20:13:24;19.30;99.90
46231;DHT22;31949;51.404;-0.038;2023-09-12T20:15:51;19.30;99.90
46231;DHT22;31949;51.404;-0.038;2023-09-12T20:18:19;19.30;99.90
46231;DHT22;31949;51.404;-0.038;2023-09-12T20:20:46;19.20;99.90
46231;DHT22;31949;51.404;-0.038;2023-09-12T20:23:14;19.30;99.90
46231;DHT22;31949;51.404;-0.038;2023-09-12T20:25:41;19.20;99.90
46231;DHT22;31949;51.404;-0.038;2023-09-12T20:28:09;19.20;99.90
46231;DHT22;31949;51.404;-0.038;2023-09-12T20:30:38;19.20;99.90
46231;DHT22;31949;51.404;-0.038;2023-09-12T20:33:06;19.20;99.90
46231;DHT22;31949;51.404;-0.038;2023-09-12T20:35:35;19.20;99.90
46231;DHT22;31949;51.404;-0.038;2023-09-12T20:38:03;19.20;99.90
46231;DHT22;31949;51.404;-0.038;2023-09-12T20:40:32;19.10;99.90
46231;DHT22;31949;51.404;-0.038;2023-09-12T20:42:59;19.00;99.90
46231;DHT22;31949;51.404;-0.038;2023-09-12T20:45:26;18.90;99.90
46231;DHT22;31949;51.404;-0.038;2023-09-12T20:47:54;18.70;99.90
46231;DHT22;31949;51.404;-0.038;2023-09-12T20:50:21;18.70;99.90
46231;DHT22;31949;51.404;-0.038;2023-09-12T20:53:00;18.60;99.90
46231;DHT22;31949;51.404;-0.038;2023-09-12T20:55:38;18.50;99.90
46231;DHT22;31949;51.404;-0.038;2023-09-12T20:58:05;18.40;99.90
46231;DHT22;31949;51.404;-0.038;2023-09-12T21:00:33;18.30;99.90
46231;DHT22;31949;51.404;-0.038;2023-09-12T21:03:00;18.20;99.90
46231;DHT22;31949;51.404;-0.038;2023-09-12T21:05:28;18.10;99.90
46231;DHT22;31949;51.404;-0.038;2023-09-12T21:07:56;18.10;99.90
46231;DHT22;31949;51.404;-0.038;2023-09-12T21:10:24;18.10;99.90
46231;DHT22;31949;51.404;-0.038;2023-09-12T21:12:51;18.10;99.90
46231;DHT22;31949;51.404;-0.038;2023-09-12T21:15:19;18.10;99.90
46231;DHT22;31949;51.404;-0.038;2023-09-12T21:17:50;18.00;99.90
46231;DHT22;31949;51.404;-0.038;2023-09-12T21:20:17;18.10;99.90
46231;DHT22;31949;51.404;-0.038;2023-09-12T21:22:44;18.00;99.90
46231;DHT22;31949;51.404;-0.038;2023-09-12T21:25:12;18.00;99.90
46231;DHT22;31949;51.404;-0.038;2023-09-12T21:27:39;17.90;99.90
46231;DHT22;31949;51.404;-0.038;2023-09-12T21:30:06;17.80;99.90
46231;DHT22;31949;51.404;-0.038;2023-09-12T21:32:34;17.70;99.90
46231;DHT22;31949;51.404;-0.038;2023-09-12T21:35:09;17.70;99.90
46231;DHT22;31949;51.404;-0.038;2023-09-12T21:37:37;17.70;99.90
46231;DHT22;31949;51.404;-0.038;2023-09-12T21:40:05;17.60;99.90
46231;DHT22;31949;51.404;-0.038;2023-09-12T21:42:34;17.50;99.90
46231;DHT22;31949;51.404;-0.038;2023-09-12T21:45:02;17.40;99.90
46231;DHT22;31949;51.404;-0.038;2023-09-12T21:47:31;17.40;99.90
46231;DHT22;31949;51.404;-0.038;2023-09-12T21:49:59;17.30;99.90
46231;DHT22;31949;51.404;-0.038;2023-09-12T21:52:27;17.20;99.90
46231;DHT22;31949;51.404;-0.038;2023-09-12T21:54:54;17.10;99.90
46231;DHT22;31949;51.404;-0.038;2023-09-12T21:57:21;17.10;99.90
46231;DHT22;31949;51.404;-0.038;2023-09-12T21:59:50;17.00;99.90
46231;DHT22;31949;51.404;-0.038;2023-09-12T22:02:21;17.00;99.90
46231;DHT22;31949;51.404;-0.038;2023-09-12T22:04:49;17.00;99.90
46231;DHT22;31949;51.404;-0.038;2023-09-12T22:07:16;17.00;99.90
46231;DHT22;31949;51.404;-0.038;2023-09-12T22:09:43;17.00;99.90
46231;DHT22;31949;51.404;-0.038;2023-09-12T22:12:11;17.00;99.90
46231;DHT22;31949;51.404;-0.038;2023-09-12T22:14:39;17.00;99.90